sensor_id;sensor_type;location;lat;lon;timestamp;P1;durP1;ratioP1;P2;durP2;ratioP2
54502;SDS011;40411;50.090;21.954;2022-08-21T00:02:13;27.52;;;17.35;;
54502;SDS011;40411;50.090;21.954;2022-08-21T00:04:47;25.75;;;18.08;;
54502;SDS011;40411;50.090;21.954;2022-08-21T00:07:13;32.58;;;18.30;;
54502;SDS011;40411;50.090;21.954;2022-08-21T00:09:39;30.73;;;18.10;;
54502;SDS011;40411;50.090;21.954;2022-08-21T00:12:06;29.65;;;17.63;;
54502;SDS011;40411;50.090;21.954;2022-08-21T00:14:32;31.50;;;19.15;;
54502;SDS011;40411;50.090;21.954;2022-08-21T00:16:58;32.50;;;18.92;;
54502;SDS011;40411;50.090;21.954;2022-08-21T00:19:25;32.00;;;19.88;;
54502;SDS011;40411;50.090;21.954;2022-08-21T00:21:51;28.50;;;19.58;;
54502;SDS011;40411;50.090;21.954;2022-08-21T00:24:18;34.53;;;18.50;;
54502;SDS011;40411;50.090;21.954;2022-08-21T00:26:45;26.75;;;19.63;;
54502;SDS011;40411;50.090;21.954;2022-08-21T00:29:12;28.55;;;18.15;;
54502;SDS011;40411;50.090;21.954;2022-08-21T00:31:39;28.80;;;18.70;;
54502;SDS011;40411;50.090;21.954;2022-08-21T00:34:06;30.90;;;19.95;;
54502;SDS011;40411;50.090;21.954;2022-08-21T00:36:34;28.55;;;18.40;;
54502;SDS011;40411;50.090;21.954;2022-08-21T00:39:00;30.23;;;19.55;;
54502;SDS011;40411;50.090;21.954;2022-08-21T00:41:28;27.60;;;18.95;;
54502;SDS011;40411;50.090;21.954;2022-08-21T00:43:54;30.25;;;19.58;;
54502;SDS011;40411;50.090;21.954;2022-08-21T00:46:20;30.10;;;19.38;;
54502;SDS011;40411;50.090;21.954;2022-08-21T00:48:46;30.27;;;19.23;;
54502;SDS011;40411;50.090;21.954;2022-08-21T00:51:14;29.50;;;18.08;;
54502;SDS011;40411;50.090;21.954;2022-08-21T00:53:49;27.80;;;18.10;;
54502;SDS011;40411;50.090;21.954;2022-08-21T00:56:19;27.42;;;18.25;;
54502;SDS011;40411;50.090;21.954;2022-08-21T00:58:46;33.95;;;19.38;;
54502;SDS011;40411;50.090;21.954;2022-08-21T01:01:13;30.45;;;20.17;;
54502;SDS011;40411;50.090;21.954;2022-08-21T01:03:39;26.70;;;20.00;;
54502;SDS011;40411;50.090;21.954;2022-08-21T01:06:05;27.80;;;19.73;;
54502;SDS011;40411;50.090;21.954;2022-08-21T01:08:32;30.25;;;19.88;;
54502;SDS011;40411;50.090;21.954;2022-08-21T01:10:59;27.75;;;19.90;;
54502;SDS011;40411;50.090;21.954;2022-08-21T01:13:26;31.35;;;20.42;;
54502;SDS011;40411;50.090;21.954;2022-08-21T01:15:55;34.05;;;19.98;;
54502;SDS011;40411;50.090;21.954;2022-08-21T01:18:25;35.78;;;21.05;;
54502;SDS011;40411;50.090;21.954;2022-08-21T01:21:08;35.13;;;21.13;;
54502;SDS011;40411;50.090;21.954;2022-08-21T01:23:37;35.67;;;21.58;;
54502;SDS011;40411;50.090;21.954;2022-08-21T01:26:06;35.97;;;22.35;;
54502;SDS011;40411;50.090;21.954;2022-08-21T01:28:34;35.00;;;22.27;;
54502;SDS011;40411;50.090;21.954;2022-08-21T01:31:04;34.17;;;22.98;;
54502;SDS011;40411;50.090;21.954;2022-08-21T01:33:32;39.83;;;21.95;;
54502;SDS011;40411;50.090;21.954;2022-08-21T01:35:58;29.55;;;22.13;;
54502;SDS011;40411;50.090;21.954;2022-08-21T01:38:24;31.17;;;20.92;;
54502;SDS011;40411;50.090;21.954;2022-08-21T01:40:50;32.42;;;21.30;;
54502;SDS011;40411;50.090;21.954;2022-08-21T01:43:16;39.83;;;22.02;;
54502;SDS011;40411;50.090;21.954;2022-08-21T01:45:42;34.28;;;23.13;;
54502;SDS011;40411;50.090;21.954;2022-08-21T01:48:08;37.92;;;23.60;;
54502;SDS011;40411;50.090;21.954;2022-08-21T01:50:33;40.72;;;24.05;;
54502;SDS011;40411;50.090;21.954;2022-08-21T01:52:59;34.15;;;21.25;;
54502;SDS011;40411;50.090;21.954;2022-08-21T01:55:25;32.35;;;20.52;;
54502;SDS011;40411;50.090;21.954;2022-08-21T01:57:51;27.35;;;19.65;;
54502;SDS011;40411;50.090;21.954;2022-08-21T02:00:18;24.60;;;16.85;;
54502;SDS011;40411;50.090;21.954;2022-08-21T02:02:48;23.45;;;16.25;;
54502;SDS011;40411;50.090;21.954;2022-08-21T02:05:14;27.63;;;18.40;;
54502;SDS011;40411;50.090;21.954;2022-08-21T02:07:42;31.75;;;19.13;;
54502;SDS011;40411;50.090;21.954;2022-08-21T02:10:12;23.42;;;15.93;;
54502;SDS011;40411;50.090;21.954;2022-08-21T02:12:40;29.02;;;18.23;;
54502;SDS011;40411;50.090;21.954;2022-08-21T02:15:06;30.02;;;19.85;;
54502;SDS011;40411;50.090;21.954;2022-08-21T02:17:37;32.25;;;20.95;;
54502;SDS011;40411;50.090;21.954;2022-08-21T02:20:04;38.20;;;22.27;;
54502;SDS011;40411;50.090;21.954;2022-08-21T02:22:30;35.83;;;21.42;;
54502;SDS011;40411;50.090;21.954;2022-08-21T02:24:56;36.33;;;22.30;;
54502;SDS011;40411;50.090;21.954;2022-08-21T02:27:23;33.90;;;22.05;;
54502;SDS011;40411;50.090;21.954;2022-08-21T02:29:49;35.60;;;22.88;;
54502;SDS011;40411;50.090;21.954;2022-08-21T02:32:15;37.88;;;22.75;;
54502;SDS011;40411;50.090;21.954;2022-08-21T02:34:41;40.97;;;23.27;;
54502;SDS011;40411;50.090;21.954;2022-08-21T02:37:07;44.28;;;23.02;;
54502;SDS011;40411;50.090;21.954;2022-08-21T02:39:33;34.30;;;21.80;;
54502;SDS011;40411;50.090;21.954;2022-08-21T02:41:58;33.65;;;22.42;;
54502;SDS011;40411;50.090;21.954;2022-08-21T02:44:25;36.78;;;21.42;;
54502;SDS011;40411;50.090;21.954;2022-08-21T02:46:51;38.30;;;23.25;;
54502;SDS011;40411;50.090;21.954;2022-08-21T02:49:16;35.63;;;23.15;;
54502;SDS011;40411;50.090;21.954;2022-08-21T02:51:42;39.95;;;24.73;;
54502;SDS011;40411;50.090;21.954;2022-08-21T02:54:08;38.42;;;24.48;;
54502;SDS011;40411;50.090;21.954;2022-08-21T02:56:34;35.35;;;22.77;;
54502;SDS011;40411;50.090;21.954;2022-08-21T02:59:00;36.85;;;22.83;;
54502;SDS011;40411;50.090;21.954;2022-08-21T03:01:26;36.47;;;23.65;;
54502;SDS011;40411;50.090;21.954;2022-08-21T03:03:52;44.90;;;25.75;;
54502;SDS011;40411;50.090;21.954;2022-08-21T03:06:20;37.83;;;24.83;;
54502;SDS011;40411;50.090;21.954;2022-08-21T03:08:47;37.58;;;23.05;;
54502;SDS011;40411;50.090;21.954;2022-08-21T03:11:13;36.97;;;23.48;;
54502;SDS011;40411;50.090;21.954;2022-08-21T03:13:40;31.65;;;22.65;;
54502;SDS011;40411;50.090;21.954;2022-08-21T03:16:06;35.97;;;21.83;;
54502;SDS011;40411;50.090;21.954;2022-08-21T03:18:32;36.60;;;22.60;;
54502;SDS011;40411;50.090;21.954;2022-08-21T03:20:59;39.45;;;23.48;;
54502;SDS011;40411;50.090;21.954;2022-08-21T03:23:25;40.67;;;24.00;;
54502;SDS011;40411;50.090;21.954;2022-08-21T03:25:51;47.58;;;24.58;;
54502;SDS011;40411;50.090;21.954;2022-08-21T03:28:19;39.13;;;22.98;;
54502;SDS011;40411;50.090;21.954;2022-08-21T03:30:47;39.00;;;23.60;;
54502;SDS011;40411;50.090;21.954;2022-08-21T03:33:15;36.03;;;24.33;;
54502;SDS011;40411;50.090;21.954;2022-08-21T03:35:42;30.77;;;19.33;;
54502;SDS011;40411;50.090;21.954;2022-08-21T03:38:09;31.63;;;19.88;;
54502;SDS011;40411;50.090;21.954;2022-08-21T03:40:38;29.70;;;19.45;;
54502;SDS011;40411;50.090;21.954;2022-08-21T03:43:04;28.58;;;19.17;;
54502;SDS011;40411;50.090;21.954;2022-08-21T03:45:30;25.25;;;17.17;;
54502;SDS011;40411;50.090;21.954;2022-08-21T03:47:57;31.00;;;19.02;;
54502;SDS011;40411;50.090;21.954;2022-08-21T03:50:25;37.38;;;19.40;;
54502;SDS011;40411;50.090;21.954;2022-08-21T03:52:53;33.15;;;19.35;;
54502;SDS011;40411;50.090;21.954;2022-08-21T03:55:19;31.05;;;19.10;;
54502;SDS011;40411;50.090;21.954;2022-08-21T03:57:44;37.40;;;23.45;;
54502;SDS011;40411;50.090;21.954;2022-08-21T04:00:11;35.40;;;22.83;;
54502;SDS011;40411;50.090;21.954;2022-08-21T04:02:39;39.90;;;22.80;;
54502;SDS011;40411;50.090;21.954;2022-08-21T04:05:06;36.05;;;21.33;;
54502;SDS011;40411;50.090;21.954;2022-08-21T04:07:33;35.45;;;22.05;;
54502;SDS011;40411;50.090;21.954;2022-08-21T04:09:59;32.92;;;21.48;;
54502;SDS011;40411;50.090;21.954;2022-08-21T04:12:25;38.60;;;23.13;;
54502;SDS011;40411;50.090;21.954;2022-08-21T04:14:50;33.70;;;22.38;;
54502;SDS011;40411;50.090;21.954;2022-08-21T04:17:17;32.30;;;21.90;;
54502;SDS011;40411;50.090;21.954;2022-08-21T04:19:43;32.25;;;21.30;;
54502;SDS011;40411;50.090;21.954;2022-08-21T04:22:09;31.10;;;20.60;;
54502;SDS011;40411;50.090;21.954;2022-08-21T04:24:35;39.67;;;22.08;;
54502;SDS011;40411;50.090;21.954;2022-08-21T04:27:02;31.88;;;21.90;;
54502;SDS011;40411;50.090;21.954;2022-08-21T04:29:28;29.73;;;20.35;;
54502;SDS011;40411;50.090;21.954;2022-08-21T04:31:54;32.70;;;20.38;;
54502;SDS011;40411;50.090;21.954;2022-08-21T04:34:20;28.70;;;18.40;;
54502;SDS011;40411;50.090;21.954;2022-08-21T04:36:45;29.45;;;18.77;;
54502;SDS011;40411;50.090;21.954;2022-08-21T04:39:11;30.45;;;19.90;;
54502;SDS011;40411;50.090;21.954;2022-08-21T04:41:37;32.08;;;19.20;;
54502;SDS011;40411;50.090;21.954;2022-08-21T04:44:04;22.55;;;16.70;;
54502;SDS011;40411;50.090;21.954;2022-08-21T04:46:29;25.30;;;16.42;;
54502;SDS011;40411;50.090;21.954;2022-08-21T04:48:55;27.15;;;17.33;;
54502;SDS011;40411;50.090;21.954;2022-08-21T04:51:26;27.70;;;17.27;;
54502;SDS011;40411;50.090;21.954;2022-08-21T04:53:59;27.75;;;17.63;;
54502;SDS011;40411;50.090;21.954;2022-08-21T04:56:31;25.08;;;17.50;;
54502;SDS011;40411;50.090;21.954;2022-08-21T04:59:03;23.15;;;16.08;;
54502;SDS011;40411;50.090;21.954;2022-08-21T05:01:36;22.90;;;16.33;;
54502;SDS011;40411;50.090;21.954;2022-08-21T05:04:05;21.23;;;15.55;;
54502;SDS011;40411;50.090;21.954;2022-08-21T05:06:34;20.88;;;14.50;;
54502;SDS011;40411;50.090;21.954;2022-08-21T05:09:02;19.90;;;15.02;;
54502;SDS011;40411;50.090;21.954;2022-08-21T05:11:32;19.17;;;14.25;;
54502;SDS011;40411;50.090;21.954;2022-08-21T05:13:58;17.15;;;12.38;;
54502;SDS011;40411;50.090;21.954;2022-08-21T05:16:24;17.10;;;12.25;;
54502;SDS011;40411;50.090;21.954;2022-08-21T05:18:50;16.48;;;11.38;;
54502;SDS011;40411;50.090;21.954;2022-08-21T05:21:16;21.25;;;12.15;;
54502;SDS011;40411;50.090;21.954;2022-08-21T05:23:42;19.25;;;10.38;;
54502;SDS011;40411;50.090;21.954;2022-08-21T05:26:08;19.20;;;10.43;;
54502;SDS011;40411;50.090;21.954;2022-08-21T05:28:34;18.80;;;10.90;;
54502;SDS011;40411;50.090;21.954;2022-08-21T05:31:00;15.07;;;10.25;;
54502;SDS011;40411;50.090;21.954;2022-08-21T05:33:27;13.73;;;9.32;;
54502;SDS011;40411;50.090;21.954;2022-08-21T05:35:53;16.15;;;9.80;;
54502;SDS011;40411;50.090;21.954;2022-08-21T05:38:23;12.57;;;8.23;;
54502;SDS011;40411;50.090;21.954;2022-08-21T05:40:52;14.65;;;8.65;;
54502;SDS011;40411;50.090;21.954;2022-08-21T05:43:19;17.40;;;9.07;;
54502;SDS011;40411;50.090;21.954;2022-08-21T05:45:45;15.23;;;9.25;;
54502;SDS011;40411;50.090;21.954;2022-08-21T05:48:15;14.15;;;8.60;;
54502;SDS011;40411;50.090;21.954;2022-08-21T05:50:44;14.00;;;8.63;;
54502;SDS011;40411;50.090;21.954;2022-08-21T05:53:11;15.40;;;9.27;;
54502;SDS011;40411;50.090;21.954;2022-08-21T05:55:38;15.13;;;8.95;;
54502;SDS011;40411;50.090;21.954;2022-08-21T05:58:04;17.50;;;8.38;;
54502;SDS011;40411;50.090;21.954;2022-08-21T06:00:30;15.50;;;9.48;;
54502;SDS011;40411;50.090;21.954;2022-08-21T06:02:57;15.05;;;8.68;;
54502;SDS011;40411;50.090;21.954;2022-08-21T06:05:23;15.10;;;8.52;;
54502;SDS011;40411;50.090;21.954;2022-08-21T06:07:50;14.73;;;8.70;;
54502;SDS011;40411;50.090;21.954;2022-08-21T06:10:16;15.55;;;8.07;;
54502;SDS011;40411;50.090;21.954;2022-08-21T06:12:42;16.55;;;9.15;;
54502;SDS011;40411;50.090;21.954;2022-08-21T06:15:08;17.38;;;8.30;;
54502;SDS011;40411;50.090;21.954;2022-08-21T06:17:34;16.13;;;8.38;;
54502;SDS011;40411;50.090;21.954;2022-08-21T06:20:00;16.92;;;9.30;;
54502;SDS011;40411;50.090;21.954;2022-08-21T06:22:26;11.57;;;7.53;;
54502;SDS011;40411;50.090;21.954;2022-08-21T06:24:52;12.40;;;8.18;;
54502;SDS011;40411;50.090;21.954;2022-08-21T06:27:18;14.52;;;8.20;;
54502;SDS011;40411;50.090;21.954;2022-08-21T06:29:44;18.85;;;8.23;;
54502;SDS011;40411;50.090;21.954;2022-08-21T06:32:11;19.08;;;8.35;;
54502;SDS011;40411;50.090;21.954;2022-08-21T06:34:39;12.68;;;7.50;;
54502;SDS011;40411;50.090;21.954;2022-08-21T06:37:06;15.40;;;7.35;;
54502;SDS011;40411;50.090;21.954;2022-08-21T06:39:33;11.18;;;7.00;;
54502;SDS011;40411;50.090;21.954;2022-08-21T06:41:59;14.60;;;7.50;;
54502;SDS011;40411;50.090;21.954;2022-08-21T06:44:27;14.73;;;7.60;;
54502;SDS011;40411;50.090;21.954;2022-08-21T06:46:55;11.93;;;7.40;;
54502;SDS011;40411;50.090;21.954;2022-08-21T06:49:20;16.00;;;7.65;;
54502;SDS011;40411;50.090;21.954;2022-08-21T06:51:46;11.52;;;7.30;;
54502;SDS011;40411;50.090;21.954;2022-08-21T06:54:12;12.95;;;7.50;;
54502;SDS011;40411;50.090;21.954;2022-08-21T06:56:38;17.13;;;7.00;;
54502;SDS011;40411;50.090;21.954;2022-08-21T06:59:04;16.80;;;7.38;;
54502;SDS011;40411;50.090;21.954;2022-08-21T07:01:31;11.38;;;7.03;;
54502;SDS011;40411;50.090;21.954;2022-08-21T07:03:57;18.05;;;7.78;;
54502;SDS011;40411;50.090;21.954;2022-08-21T07:06:23;13.65;;;6.75;;
54502;SDS011;40411;50.090;21.954;2022-08-21T07:08:50;21.02;;;7.25;;
54502;SDS011;40411;50.090;21.954;2022-08-21T07:11:20;13.73;;;7.18;;
54502;SDS011;40411;50.090;21.954;2022-08-21T07:13:47;13.27;;;7.35;;
54502;SDS011;40411;50.090;21.954;2022-08-21T07:16:16;12.38;;;7.45;;
54502;SDS011;40411;50.090;21.954;2022-08-21T07:18:42;12.60;;;7.03;;
54502;SDS011;40411;50.090;21.954;2022-08-21T07:21:08;14.38;;;7.05;;
54502;SDS011;40411;50.090;21.954;2022-08-21T07:23:37;10.70;;;6.18;;
54502;SDS011;40411;50.090;21.954;2022-08-21T07:26:06;12.73;;;6.60;;
54502;SDS011;40411;50.090;21.954;2022-08-21T07:28:33;13.20;;;6.97;;
54502;SDS011;40411;50.090;21.954;2022-08-21T07:30:59;17.45;;;7.53;;
54502;SDS011;40411;50.090;21.954;2022-08-21T07:33:27;13.18;;;6.50;;
54502;SDS011;40411;50.090;21.954;2022-08-21T07:35:55;10.98;;;6.40;;
54502;SDS011;40411;50.090;21.954;2022-08-21T07:38:21;13.18;;;6.32;;
54502;SDS011;40411;50.090;21.954;2022-08-21T07:40:48;12.93;;;5.90;;
54502;SDS011;40411;50.090;21.954;2022-08-21T07:43:16;10.57;;;5.28;;
54502;SDS011;40411;50.090;21.954;2022-08-21T07:45:44;12.20;;;5.82;;
54502;SDS011;40411;50.090;21.954;2022-08-21T07:48:10;10.25;;;5.70;;
54502;SDS011;40411;50.090;21.954;2022-08-21T07:50:36;12.70;;;5.90;;
54502;SDS011;40411;50.090;21.954;2022-08-21T07:53:02;10.07;;;5.30;;
54502;SDS011;40411;50.090;21.954;2022-08-21T07:55:29;10.27;;;5.70;;
54502;SDS011;40411;50.090;21.954;2022-08-21T07:57:55;9.60;;;5.55;;
54502;SDS011;40411;50.090;21.954;2022-08-21T08:00:23;9.95;;;5.60;;
54502;SDS011;40411;50.090;21.954;2022-08-21T08:02:50;10.88;;;5.35;;
54502;SDS011;40411;50.090;21.954;2022-08-21T08:05:19;15.52;;;6.32;;
54502;SDS011;40411;50.090;21.954;2022-08-21T08:07:47;10.90;;;5.68;;
54502;SDS011;40411;50.090;21.954;2022-08-21T08:10:13;15.55;;;6.68;;
54502;SDS011;40411;50.090;21.954;2022-08-21T08:12:40;10.07;;;5.75;;
54502;SDS011;40411;50.090;21.954;2022-08-21T08:15:08;9.77;;;6.10;;
54502;SDS011;40411;50.090;21.954;2022-08-21T08:17:36;12.52;;;5.95;;
54502;SDS011;40411;50.090;21.954;2022-08-21T08:20:04;10.40;;;5.88;;
54502;SDS011;40411;50.090;21.954;2022-08-21T08:22:33;10.25;;;5.35;;
54502;SDS011;40411;50.090;21.954;2022-08-21T08:25:00;10.48;;;5.60;;
54502;SDS011;40411;50.090;21.954;2022-08-21T08:27:26;10.60;;;5.90;;
54502;SDS011;40411;50.090;21.954;2022-08-21T08:29:52;8.88;;;5.00;;
54502;SDS011;40411;50.090;21.954;2022-08-21T08:32:19;15.20;;;5.68;;
54502;SDS011;40411;50.090;21.954;2022-08-21T08:34:45;10.40;;;5.32;;
54502;SDS011;40411;50.090;21.954;2022-08-21T08:37:12;11.93;;;5.18;;
54502;SDS011;40411;50.090;21.954;2022-08-21T08:39:38;10.48;;;5.40;;
54502;SDS011;40411;50.090;21.954;2022-08-21T08:44:32;10.63;;;5.50;;
54502;SDS011;40411;50.090;21.954;2022-08-21T08:46:59;14.70;;;5.50;;
54502;SDS011;40411;50.090;21.954;2022-08-21T08:49:31;15.02;;;5.50;;
54502;SDS011;40411;50.090;21.954;2022-08-21T08:52:09;12.55;;;5.55;;
54502;SDS011;40411;50.090;21.954;2022-08-21T08:54:45;11.57;;;5.32;;
54502;SDS011;40411;50.090;21.954;2022-08-21T08:57:22;11.93;;;5.72;;
54502;SDS011;40411;50.090;21.954;2022-08-21T08:59:52;13.48;;;5.10;;
54502;SDS011;40411;50.090;21.954;2022-08-21T09:02:21;9.27;;;4.13;;
54502;SDS011;40411;50.090;21.954;2022-08-21T09:04:53;17.83;;;4.95;;
54502;SDS011;40411;50.090;21.954;2022-08-21T09:15:23;10.20;;;4.88;;
54502;SDS011;40411;50.090;21.954;2022-08-21T09:26:14;11.45;;;5.53;;
54502;SDS011;40411;50.090;21.954;2022-08-21T09:28:42;16.67;;;6.28;;
54502;SDS011;40411;50.090;21.954;2022-08-21T09:31:31;9.10;;;4.95;;
54502;SDS011;40411;50.090;21.954;2022-08-21T09:33:59;9.98;;;5.13;;
54502;SDS011;40411;50.090;21.954;2022-08-21T09:36:47;13.07;;;4.68;;
54502;SDS011;40411;50.090;21.954;2022-08-21T09:40:00;12.88;;;5.00;;
54502;SDS011;40411;50.090;21.954;2022-08-21T09:42:05;12.15;;;5.05;;
54502;SDS011;40411;50.090;21.954;2022-08-21T09:44:35;11.30;;;4.90;;
54502;SDS011;40411;50.090;21.954;2022-08-21T09:47:09;11.18;;;4.65;;
54502;SDS011;40411;50.090;21.954;2022-08-21T09:49:39;14.50;;;4.97;;
54502;SDS011;40411;50.090;21.954;2022-08-21T09:52:20;12.15;;;4.55;;
54502;SDS011;40411;50.090;21.954;2022-08-21T09:54:50;8.63;;;4.73;;
54502;SDS011;40411;50.090;21.954;2022-08-21T09:57:25;11.20;;;4.60;;
54502;SDS011;40411;50.090;21.954;2022-08-21T10:02:51;7.50;;;4.03;;
54502;SDS011;40411;50.090;21.954;2022-08-21T10:05:21;10.15;;;4.70;;
54502;SDS011;40411;50.090;21.954;2022-08-21T10:07:49;14.68;;;5.00;;
54502;SDS011;40411;50.090;21.954;2022-08-21T10:10:26;11.18;;;4.40;;
54502;SDS011;40411;50.090;21.954;2022-08-21T10:12:58;9.73;;;4.75;;
54502;SDS011;40411;50.090;21.954;2022-08-21T10:18:38;9.25;;;4.10;;
54502;SDS011;40411;50.090;21.954;2022-08-21T10:24:11;10.15;;;4.53;;
54502;SDS011;40411;50.090;21.954;2022-08-21T10:37:52;12.82;;;4.20;;
54502;SDS011;40411;50.090;21.954;2022-08-21T10:41:05;18.02;;;4.38;;
54502;SDS011;40411;50.090;21.954;2022-08-21T10:54:52;14.10;;;4.22;;
54502;SDS011;40411;50.090;21.954;2022-08-21T10:57:29;9.85;;;3.88;;
54502;SDS011;40411;50.090;21.954;2022-08-21T11:00:10;12.75;;;4.13;;
54502;SDS011;40411;50.090;21.954;2022-08-21T11:05:25;12.77;;;4.53;;
54502;SDS011;40411;50.090;21.954;2022-08-21T11:08:12;12.85;;;4.15;;
54502;SDS011;40411;50.090;21.954;2022-08-21T11:19:02;12.25;;;4.10;;
54502;SDS011;40411;50.090;21.954;2022-08-21T11:21:39;12.60;;;4.43;;
54502;SDS011;40411;50.090;21.954;2022-08-21T11:29:36;12.93;;;4.10;;
54502;SDS011;40411;50.090;21.954;2022-08-21T11:32:20;8.70;;;3.75;;
54502;SDS011;40411;50.090;21.954;2022-08-21T11:50:42;9.38;;;3.90;;
54502;SDS011;40411;50.090;21.954;2022-08-21T11:53:12;8.32;;;3.70;;
54502;SDS011;40411;50.090;21.954;2022-08-21T11:55:52;9.82;;;3.97;;
54502;SDS011;40411;50.090;21.954;2022-08-21T11:58:47;9.13;;;3.47;;
54502;SDS011;40411;50.090;21.954;2022-08-21T12:01:27;9.30;;;4.00;;
54502;SDS011;40411;50.090;21.954;2022-08-21T12:06:34;6.63;;;3.35;;
54502;SDS011;40411;50.090;21.954;2022-08-21T12:09:06;8.73;;;4.45;;
54502;SDS011;40411;50.090;21.954;2022-08-21T12:11:59;9.60;;;3.70;;
54502;SDS011;40411;50.090;21.954;2022-08-21T12:14:35;10.52;;;4.18;;
54502;SDS011;40411;50.090;21.954;2022-08-21T12:17:27;12.52;;;3.95;;
54502;SDS011;40411;50.090;21.954;2022-08-21T12:20:15;10.73;;;3.92;;
54502;SDS011;40411;50.090;21.954;2022-08-21T12:22:41;9.32;;;3.78;;
54502;SDS011;40411;50.090;21.954;2022-08-21T12:25:18;12.65;;;4.35;;
54502;SDS011;40411;50.090;21.954;2022-08-21T12:27:50;14.15;;;4.38;;
54502;SDS011;40411;50.090;21.954;2022-08-21T12:33:01;8.18;;;4.18;;
54502;SDS011;40411;50.090;21.954;2022-08-21T12:35:48;12.57;;;4.20;;
54502;SDS011;40411;50.090;21.954;2022-08-21T12:38:31;10.73;;;4.32;;
54502;SDS011;40411;50.090;21.954;2022-08-21T12:41:06;14.43;;;4.22;;
54502;SDS011;40411;50.090;21.954;2022-08-21T12:43:41;6.57;;;3.75;;
54502;SDS011;40411;50.090;21.954;2022-08-21T12:46:19;11.50;;;3.97;;
54502;SDS011;40411;50.090;21.954;2022-08-21T12:48:48;8.48;;;3.55;;
54502;SDS011;40411;50.090;21.954;2022-08-21T12:51:23;9.60;;;4.00;;
54502;SDS011;40411;50.090;21.954;2022-08-21T12:53:55;11.18;;;4.00;;
54502;SDS011;40411;50.090;21.954;2022-08-21T12:56:23;12.77;;;3.53;;
54502;SDS011;40411;50.090;21.954;2022-08-21T12:58:53;12.48;;;5.45;;
54502;SDS011;40411;50.090;21.954;2022-08-21T13:01:27;12.73;;;4.03;;
54502;SDS011;40411;50.090;21.954;2022-08-21T13:03:59;13.00;;;5.20;;
54502;SDS011;40411;50.090;21.954;2022-08-21T13:06:29;10.20;;;3.75;;
54502;SDS011;40411;50.090;21.954;2022-08-21T13:09:06;8.27;;;3.95;;
54502;SDS011;40411;50.090;21.954;2022-08-21T13:11:37;8.60;;;4.30;;
54502;SDS011;40411;50.090;21.954;2022-08-21T13:14:06;13.15;;;5.35;;
54502;SDS011;40411;50.090;21.954;2022-08-21T13:16:40;10.77;;;4.50;;
54502;SDS011;40411;50.090;21.954;2022-08-21T13:19:07;10.82;;;4.93;;
54502;SDS011;40411;50.090;21.954;2022-08-21T13:21:41;14.93;;;4.40;;
54502;SDS011;40411;50.090;21.954;2022-08-21T13:24:17;7.28;;;4.20;;
54502;SDS011;40411;50.090;21.954;2022-08-21T13:26:47;10.48;;;4.40;;
54502;SDS011;40411;50.090;21.954;2022-08-21T13:29:15;7.50;;;3.75;;
54502;SDS011;40411;50.090;21.954;2022-08-21T13:31:47;9.15;;;4.38;;
54502;SDS011;40411;50.090;21.954;2022-08-21T13:34:25;10.90;;;4.75;;
54502;SDS011;40411;50.090;21.954;2022-08-21T13:36:56;9.57;;;4.40;;
54502;SDS011;40411;50.090;21.954;2022-08-21T13:39:24;11.77;;;4.60;;
54502;SDS011;40411;50.090;21.954;2022-08-21T13:41:56;9.60;;;4.90;;
54502;SDS011;40411;50.090;21.954;2022-08-21T13:44:24;11.95;;;4.78;;
54502;SDS011;40411;50.090;21.954;2022-08-21T13:47:05;7.40;;;4.45;;
54502;SDS011;40411;50.090;21.954;2022-08-21T13:49:34;12.23;;;4.65;;
54502;SDS011;40411;50.090;21.954;2022-08-21T13:52:02;8.30;;;4.72;;
54502;SDS011;40411;50.090;21.954;2022-08-21T13:54:36;12.75;;;4.72;;
54502;SDS011;40411;50.090;21.954;2022-08-21T13:57:15;19.95;;;4.57;;
54502;SDS011;40411;50.090;21.954;2022-08-21T13:59:42;10.75;;;5.03;;
54502;SDS011;40411;50.090;21.954;2022-08-21T14:02:18;11.68;;;4.78;;
54502;SDS011;40411;50.090;21.954;2022-08-21T14:05:02;9.30;;;4.35;;
54502;SDS011;40411;50.090;21.954;2022-08-21T14:07:30;11.05;;;5.10;;
54502;SDS011;40411;50.090;21.954;2022-08-21T14:10:05;14.40;;;4.40;;
54502;SDS011;40411;50.090;21.954;2022-08-21T14:12:45;10.20;;;4.68;;
54502;SDS011;40411;50.090;21.954;2022-08-21T14:15:15;11.57;;;4.63;;
54502;SDS011;40411;50.090;21.954;2022-08-21T14:17:43;8.30;;;4.50;;
54502;SDS011;40411;50.090;21.954;2022-08-21T14:20:11;6.53;;;4.20;;
54502;SDS011;40411;50.090;21.954;2022-08-21T14:22:50;9.63;;;4.97;;
54502;SDS011;40411;50.090;21.954;2022-08-21T14:27:51;10.27;;;4.25;;
54502;SDS011;40411;50.090;21.954;2022-08-21T14:30:31;12.85;;;4.60;;
54502;SDS011;40411;50.090;21.954;2022-08-21T14:33:02;12.27;;;4.40;;
54502;SDS011;40411;50.090;21.954;2022-08-21T14:35:30;9.50;;;4.78;;
54502;SDS011;40411;50.090;21.954;2022-08-21T14:37:56;9.10;;;4.50;;
54502;SDS011;40411;50.090;21.954;2022-08-21T14:40:23;9.40;;;4.80;;
54502;SDS011;40411;50.090;21.954;2022-08-21T14:42:50;10.70;;;4.60;;
54502;SDS011;40411;50.090;21.954;2022-08-21T14:45:25;12.63;;;5.07;;
54502;SDS011;40411;50.090;21.954;2022-08-21T14:47:52;7.60;;;4.93;;
54502;SDS011;40411;50.090;21.954;2022-08-21T14:50:18;9.45;;;4.93;;
54502;SDS011;40411;50.090;21.954;2022-08-21T14:52:44;13.82;;;5.15;;
54502;SDS011;40411;50.090;21.954;2022-08-21T14:55:13;8.23;;;4.97;;
54502;SDS011;40411;50.090;21.954;2022-08-21T14:57:41;10.57;;;5.32;;
54502;SDS011;40411;50.090;21.954;2022-08-21T15:00:11;10.35;;;4.78;;
54502;SDS011;40411;50.090;21.954;2022-08-21T15:02:38;10.00;;;4.40;;
54502;SDS011;40411;50.090;21.954;2022-08-21T15:05:04;10.85;;;5.07;;
54502;SDS011;40411;50.090;21.954;2022-08-21T15:07:32;11.38;;;6.03;;
54502;SDS011;40411;50.090;21.954;2022-08-21T15:09:57;14.27;;;5.45;;
54502;SDS011;40411;50.090;21.954;2022-08-21T15:12:24;11.35;;;4.80;;
54502;SDS011;40411;50.090;21.954;2022-08-21T15:14:50;14.52;;;6.18;;
54502;SDS011;40411;50.090;21.954;2022-08-21T15:17:16;11.95;;;6.72;;
54502;SDS011;40411;50.090;21.954;2022-08-21T15:19:43;8.57;;;5.10;;
54502;SDS011;40411;50.090;21.954;2022-08-21T15:22:09;12.13;;;5.07;;
54502;SDS011;40411;50.090;21.954;2022-08-21T15:24:35;14.90;;;7.60;;
54502;SDS011;40411;50.090;21.954;2022-08-21T15:27:01;9.23;;;5.50;;
54502;SDS011;40411;50.090;21.954;2022-08-21T15:29:30;11.15;;;4.85;;
54502;SDS011;40411;50.090;21.954;2022-08-21T15:31:57;13.30;;;5.60;;
54502;SDS011;40411;50.090;21.954;2022-08-21T15:34:26;14.10;;;5.07;;
54502;SDS011;40411;50.090;21.954;2022-08-21T15:36:55;16.95;;;5.47;;
54502;SDS011;40411;50.090;21.954;2022-08-21T15:39:22;9.10;;;4.95;;
54502;SDS011;40411;50.090;21.954;2022-08-21T15:41:50;10.45;;;5.38;;
54502;SDS011;40411;50.090;21.954;2022-08-21T15:44:16;9.48;;;4.97;;
54502;SDS011;40411;50.090;21.954;2022-08-21T15:46:43;17.38;;;5.80;;
54502;SDS011;40411;50.090;21.954;2022-08-21T15:49:10;9.70;;;5.20;;
54502;SDS011;40411;50.090;21.954;2022-08-21T15:51:36;14.88;;;5.78;;
54502;SDS011;40411;50.090;21.954;2022-08-21T15:54:02;10.32;;;4.78;;
54502;SDS011;40411;50.090;21.954;2022-08-21T15:56:35;12.07;;;5.20;;
54502;SDS011;40411;50.090;21.954;2022-08-21T15:59:04;19.35;;;5.05;;
54502;SDS011;40411;50.090;21.954;2022-08-21T16:01:34;12.15;;;5.03;;